Time;durP1;ratioP1;P1;durP2;ratioP2;P2;SDS_P1;SDS_P2;PMS_P1;PMS_P2;Temp;Humidity;BMP_temperature;BMP_pressure;BME280_temperature;BME280_humidity;BME280_pressure;Samples;Min_cycle;Max_cycle;Signal;HPM_P1;HPM_P2
2023/07/29 00:00:55;;;;;;;0.10;0.10;;;12.50;59.40;;;;;;5050339;28;20334;-59
2023/07/29 00:03:26;;;;;;;0.13;0.13;;;12.50;59.40;;;;;;5050613;28;20265;-54
2023/07/29 00:05:56;;;;;;;0.15;0.15;;;12.50;59.40;;;;;;5050111;28;20219;-57
2023/07/29 00:08:27;;;;;;;0.13;0.13;;;12.50;59.50;;;;;;5050844;28;20651;-52
2023/07/29 00:10:59;;;;;;;0.10;0.10;;;12.50;59.50;;;;;;5050785;28;20206;-56
2023/07/29 00:13:30;;;;;;;0.20;0.20;;;12.60;59.70;;;;;;5050782;28;20248;-54
2023/07/29 00:16:01;;;;;;;0.20;0.20;;;12.60;59.70;;;;;;5050169;28;20211;-52
2023/07/29 00:18:31;;;;;;;0.10;0.10;;;12.60;59.70;;;;;;5050975;28;20191;-51
2023/07/29 00:21:02;;;;;;;0.20;0.20;;;12.60;59.70;;;;;;5042284;28;20215;-49
2023/07/29 00:23:33;;;;;;;0.10;0.10;;;12.70;59.70;;;;;;5050449;28;20204;-51
2023/07/29 00:26:05;;;;;;;0.20;0.20;;;12.70;59.70;;;;;;5049844;28;20218;-55
2023/07/29 00:28:36;;;;;;;0.10;0.10;;;12.70;60.30;;;;;;5050497;28;20206;-56
2023/07/29 00:31:06;;;;;;;0.20;0.20;;;12.70;59.80;;;;;;5050227;28;20198;-55
2023/07/29 00:33:37;;;;;;;0.20;0.20;;;12.80;59.90;;;;;;5050622;28;20245;-52
2023/07/29 00:36:08;;;;;;;0.10;0.10;;;12.80;59.90;;;;;;5050309;28;20269;-54
2023/07/29 00:38:38;;;;;;;0.10;0.10;;;12.80;59.90;;;;;;5050610;28;20214;-58
2023/07/29 00:41:13;;;;;;;0.20;0.20;;;12.80;59.90;;;;;;5050328;28;20277;-56
2023/07/29 00:43:43;;;;;;;0.20;0.20;;;12.90;60.00;;;;;;5050267;28;20234;-54
2023/07/29 00:46:15;;;;;;;0.10;0.10;;;12.90;60.10;;;;;;5050361;28;20219;-56
2023/07/29 00:48:45;;;;;;;0.10;0.10;;;12.90;60.10;;;;;;5050040;28;20200;-55
2023/07/29 00:51:16;;;;;;;0.10;0.10;;;12.90;60.10;;;;;;5049726;28;20187;-57
2023/07/29 00:53:47;;;;;;;0.17;0.17;;;12.90;60.00;;;;;;5052854;28;20195;-52
2023/07/29 00:56:19;;;;;;;0.20;0.20;;;13.00;60.00;;;;;;5050676;28;20207;-51
2023/07/29 00:58:50;;;;;;;0.20;0.20;;;13.00;60.00;;;;;;5053329;28;20677;-56
2023/07/29 01:01:22;;;;;;;0.10;0.10;;;13.00;60.00;;;;;;5052928;28;20654;-56
2023/07/29 01:03:52;;;;;;;0.10;0.10;;;13.00;59.90;;;;;;5053697;28;20680;-59
2023/07/29 01:06:31;;;;;;;0.10;0.10;;;13.10;60.00;;;;;;5052807;28;20208;-52
2023/07/29 01:09:06;;;;;;;0.20;0.20;;;13.10;59.90;;;;;;5053446;28;20256;-58
2023/07/29 01:11:45;;;;;;;0.10;0.10;;;13.10;60.00;;;;;;5053464;28;20202;-56
2023/07/29 01:14:24;;;;;;;0.20;0.20;;;13.10;60.10;;;;;;5033166;28;20195;-53
2023/07/29 01:16:58;;;;;;;0.17;0.17;;;13.10;60.10;;;;;;5050643;28;20187;-55
2023/07/29 01:19:45;;;;;;;0.20;0.20;;;13.20;60.10;;;;;;5061153;28;20240;-57
2023/07/29 01:22:18;;;;;;;0.10;0.10;;;13.20;60.10;;;;;;5054340;28;20629;-55
2023/07/29 01:24:51;;;;;;;0.17;0.17;;;13.30;60.20;;;;;;5053852;28;20220;-61
2023/07/29 01:27:21;;;;;;;0.10;0.10;;;13.30;60.20;;;;;;5054141;28;20203;-51
2023/07/29 01:29:52;;;;;;;0.20;0.20;;;13.30;60.10;;;;;;5052885;28;20191;-52
2023/07/29 01:32:30;;;;;;;0.13;0.13;;;13.30;60.00;;;;;;5053085;28;20257;-53
2023/07/29 01:35:06;;;;;;;0.10;0.10;;;13.30;60.00;;;;;;5053780;28;20215;-52
2023/07/29 01:37:40;;;;;;;0.10;0.10;;;13.30;60.00;;;;;;5053169;28;20191;-58
2023/07/29 01:40:13;;;;;;;0.10;0.10;;;13.30;60.00;;;;;;5053416;28;20196;-54
2023/07/29 01:42:45;;;;;;;0.10;0.10;;;13.40;60.00;;;;;;5053051;28;20698;-55
2023/07/29 01:45:16;;;;;;;0.17;0.17;;;13.40;60.00;;;;;;5052885;28;20273;-55
2023/07/29 01:47:46;;;;;;;0.10;0.10;;;13.40;60.00;;;;;;5052610;28;20195;-54
2023/07/29 01:50:17;;;;;;;0.13;0.13;;;13.40;60.10;;;;;;5052586;28;20531;-54
2023/07/29 01:52:47;;;;;;;0.10;0.10;;;13.40;60.00;;;;;;5052674;28;20251;-57
2023/07/29 01:55:20;;;;;;;0.10;0.10;;;13.50;60.00;;;;;;5052613;28;20211;-54
2023/07/29 01:57:51;;;;;;;0.20;0.20;;;13.50;60.30;;;;;;5053795;28;20192;-54
2023/07/29 02:00:22;;;;;;;0.10;0.10;;;13.50;60.40;;;;;;5053115;28;20200;-50
2023/07/29 02:02:53;;;;;;;0.10;0.10;;;13.60;60.60;;;;;;5051910;28;20227;-61
2023/07/29 02:05:24;;;;;;;0.13;0.13;;;13.60;60.50;;;;;;5053316;28;20215;-60
2023/07/29 02:07:54;;;;;;;0.10;0.10;;;13.60;60.30;;;;;;5051715;28;20202;-58
2023/07/29 02:10:27;;;;;;;0.10;0.10;;;13.70;60.20;;;;;;5053183;28;20604;-52
2023/07/29 02:12:57;;;;;;;0.10;0.10;;;13.70;60.10;;;;;;5052608;28;20231;-59
2023/07/29 02:15:28;;;;;;;0.10;0.10;;;13.80;60.80;;;;;;5051621;28;20573;-55
2023/07/29 02:17:59;;;;;;;0.10;0.10;;;13.80;59.90;;;;;;5052859;28;20191;-56
2023/07/29 02:20:29;;;;;;;0.10;0.10;;;13.80;59.90;;;;;;5059652;28;20249;-47
2023/07/29 02:23:00;;;;;;;0.10;0.10;;;13.80;59.80;;;;;;5053031;28;20227;-53
2023/07/29 02:25:32;;;;;;;0.10;0.10;;;13.90;59.80;;;;;;5052024;28;20219;-50
2023/07/29 02:28:03;;;;;;;0.10;0.10;;;13.90;59.80;;;;;;5052733;28;20200;-53
2023/07/29 02:30:34;;;;;;;0.15;0.15;;;13.90;59.70;;;;;;5052932;28;20207;-62
2023/07/29 02:33:04;;;;;;;0.10;0.10;;;13.90;59.70;;;;;;5052408;28;20203;-60
2023/07/29 02:35:35;;;;;;;0.10;0.10;;;14.00;59.70;;;;;;5052231;28;20702;-56
2023/07/29 02:38:06;;;;;;;0.15;0.15;;;14.00;59.60;;;;;;5051995;28;20593;-60
2023/07/29 02:40:40;;;;;;;0.10;0.10;;;14.00;59.50;;;;;;5052039;28;20208;-55
2023/07/29 02:43:10;;;;;;;0.10;0.10;;;14.10;59.60;;;;;;5052414;28;20856;-60
2023/07/29 02:45:41;;;;;;;0.10;0.10;;;14.10;59.50;;;;;;5052732;28;20226;-59
2023/07/29 02:48:11;;;;;;;0.10;0.10;;;14.10;59.40;;;;;;5052846;28;20203;-53
2023/07/29 02:50:42;;;;;;;0.10;0.10;;;14.10;59.40;;;;;;5052659;28;20203;-55
2023/07/29 02:53:13;;;;;;;0.10;0.10;;;14.20;59.50;;;;;;5052384;28;20203;-51
2023/07/29 02:55:45;;;;;;;0.10;0.10;;;14.20;59.40;;;;;;5052503;28;20223;-57
2023/07/29 02:58:16;;;;;;;0.10;0.10;;;14.20;59.40;;;;;;5052865;28;20196;-59
2023/07/29 03:00:48;;;;;;;0.10;0.10;;;14.30;59.40;;;;;;5067859;28;20191;-60
2023/07/29 03:03:19;;;;;;;0.10;0.10;;;14.30;59.30;;;;;;5072262;28;20309;-48
2023/07/29 03:05:49;;;;;;;0.10;0.10;;;14.30;59.30;;;;;;5059526;28;20383;-57
2023/07/29 03:08:20;;;;;;;0.10;0.10;;;14.30;59.30;;;;;;5051173;28;20196;-60
2023/07/29 03:10:52;;;;;;;0.10;0.10;;;14.40;59.30;;;;;;5052181;28;20249;-57
2023/07/29 03:13:23;;;;;;;0.10;0.10;;;14.40;59.30;;;;;;5052572;28;20199;-57
2023/07/29 03:15:54;;;;;;;0.10;0.10;;;14.40;59.20;;;;;;5052023;28;20218;-52
2023/07/29 03:18:24;;;;;;;0.10;0.10;;;14.40;59.30;;;;;;5051847;28;20203;-54
2023/07/29 03:20:58;;;;;;;0.10;0.10;;;14.50;59.30;;;;;;5052491;28;20593;-55
2023/07/29 03:23:28;;;;;;;0.10;0.10;;;14.50;59.30;;;;;;5052379;28;20231;-57
2023/07/29 03:26:01;;;;;;;0.00;0.00;;;14.50;59.30;;;;;;5051683;28;20691;-58
2023/07/29 03:28:32;;;;;;;0.10;0.10;;;14.50;59.80;;;;;;5052761;28;20207;-55
2023/07/29 03:31:03;;;;;;;0.10;0.10;;;14.60;59.20;;;;;;5052098;28;20846;-58
2023/07/29 03:33:34;;;;;;;0.10;0.10;;;14.60;59.20;;;;;;5052353;28;20212;-56
2023/07/29 03:36:05;;;;;;;0.10;0.10;;;14.60;59.10;;;;;;5051647;28;20575;-53
2023/07/29 03:38:39;;;;;;;0.10;0.10;;;14.60;59.10;;;;;;5051827;28;20191;-58
2023/07/29 03:41:12;;;;;;;0.10;0.10;;;14.70;59.10;;;;;;5051360;28;20706;-57
2023/07/29 03:43:42;;;;;;;0.10;0.10;;;14.70;59.10;;;;;;5051869;28;20205;-57
2023/07/29 03:46:13;;;;;;;0.10;0.10;;;14.70;59.00;;;;;;5051977;28;20226;-57
2023/07/29 03:48:44;;;;;;;0.10;0.10;;;14.80;59.00;;;;;;5051766;28;20282;-54
2023/07/29 03:51:15;;;;;;;0.10;0.10;;;14.80;59.00;;;;;;5051831;28;20205;-52
2023/07/29 03:53:45;;;;;;;0.10;0.10;;;14.80;59.00;;;;;;5051717;28;20207;-55
2023/07/29 03:56:18;;;;;;;0.10;0.10;;;14.80;58.90;;;;;;5051143;28;20541;-54
2023/07/29 03:58:50;;;;;;;0.10;0.10;;;14.90;59.00;;;;;;5051646;28;20199;-53
2023/07/29 04:01:20;;;;;;;0.10;0.10;;;14.90;58.90;;;;;;5051177;28;20195;-53
2023/07/29 04:03:52;;;;;;;0.10;0.10;;;14.90;59.00;;;;;;5051449;28;20203;-53
2023/07/29 04:06:22;;;;;;;0.10;0.10;;;14.90;58.90;;;;;;5051583;28;20226;-56
2023/07/29 04:08:53;;;;;;;0.00;0.00;;;15.00;58.90;;;;;;5051720;28;20214;-55
2023/07/29 04:11:26;;;;;;;0.10;0.10;;;15.00;58.90;;;;;;5051393;28;20810;-55
2023/07/29 04:13:56;;;;;;;0.10;0.10;;;15.00;58.70;;;;;;5051710;28;20203;-54
2023/07/29 04:16:28;;;;;;;0.10;0.10;;;15.10;58.70;;;;;;5051535;28;20705;-57
2023/07/29 04:18:59;;;;;;;0.08;0.08;;;15.10;58.60;;;;;;5051160;28;20253;-58
2023/07/29 04:21:29;;;;;;;0.10;0.10;;;15.10;58.60;;;;;;5051133;28;20196;-50
2023/07/29 04:24:00;;;;;;;0.10;0.10;;;15.20;58.70;;;;;;5051061;28;20543;-54
2023/07/29 04:26:32;;;;;;;0.10;0.10;;;15.20;58.60;;;;;;5051339;28;20196;-49
2023/07/29 04:29:03;;;;;;;0.10;0.10;;;15.20;58.60;;;;;;5051531;28;20647;-49
2023/07/29 04:31:34;;;;;;;0.10;0.10;;;15.30;58.60;;;;;;5053311;28;20195;-48
2023/07/29 04:34:04;;;;;;;0.00;0.00;;;15.30;58.50;;;;;;5055958;28;20203;-49
2023/07/29 04:36:35;;;;;;;0.03;0.03;;;15.30;58.50;;;;;;5055380;28;20206;-53
2023/07/29 04:39:05;;;;;;;0.10;0.10;;;15.30;58.50;;;;;;5052628;28;20313;-54
2023/07/29 04:41:38;;;;;;;0.10;0.10;;;15.40;58.40;;;;;;5054268;28;20208;-51
2023/07/29 04:44:09;;;;;;;0.10;0.10;;;15.30;58.30;;;;;;5053369;28;20204;-58
2023/07/29 04:46:40;;;;;;;0.10;0.10;;;15.40;58.30;;;;;;5054858;28;20361;-49
2023/07/29 04:49:11;;;;;;;0.10;0.10;;;15.40;58.30;;;;;;5054915;28;20231;-61
2023/07/29 04:51:41;;;;;;;0.10;0.10;;;15.40;58.30;;;;;;5054897;28;20195;-53
2023/07/29 04:54:12;;;;;;;0.10;0.10;;;15.40;58.30;;;;;;5057127;28;20207;-50
2023/07/29 04:56:44;;;;;;;0.10;0.10;;;15.40;58.30;;;;;;5054396;28;20203;-58
2023/07/29 04:59:15;;;;;;;0.10;0.10;;;15.40;58.30;;;;;;5054725;28;20192;-57
2023/07/29 05:01:46;;;;;;;0.10;0.10;;;15.40;58.30;;;;;;5054671;28;20207;-60
2023/07/29 05:04:16;;;;;;;0.10;0.10;;;15.40;58.20;;;;;;5054159;28;20529;-56
2023/07/29 05:06:47;;;;;;;0.10;0.10;;;15.40;58.20;;;;;;5054808;28;20207;-57
2023/07/29 05:09:18;;;;;;;0.10;0.10;;;15.40;58.20;;;;;;5054967;28;20207;-52
2023/07/29 05:11:51;;;;;;;0.10;0.10;;;15.40;58.10;;;;;;5054105;28;20198;-51
2023/07/29 05:14:21;;;;;;;0.10;0.10;;;15.40;58.10;;;;;;5053702;28;20195;-60
2023/07/29 05:16:52;;;;;;;0.10;0.10;;;15.40;58.70;;;;;;5054625;28;20208;-52
2023/07/29 05:19:23;;;;;;;0.10;0.10;;;15.40;58.10;;;;;;5054458;28;20643;-54
2023/07/29 05:21:53;;;;;;;0.10;0.10;;;15.40;58.00;;;;;;5054335;28;20200;-57
2023/07/29 05:24:24;;;;;;;0.10;0.10;;;15.40;57.90;;;;;;5054469;28;20293;-60
2023/07/29 05:26:56;;;;;;;0.10;0.10;;;15.40;58.00;;;;;;5053996;28;20203;-54
2023/07/29 05:29:27;;;;;;;0.10;0.10;;;15.40;58.00;;;;;;5054128;28;20199;-53
2023/07/29 05:31:58;;;;;;;0.10;0.10;;;15.40;58.00;;;;;;5054796;28;20674;-52
2023/07/29 05:34:29;;;;;;;0.10;0.10;;;15.40;58.00;;;;;;5053984;28;20255;-51
2023/07/29 05:36:59;;;;;;;0.10;0.10;;;15.40;57.90;;;;;;5053883;28;20191;-53
2023/07/29 05:39:30;;;;;;;0.00;0.00;;;15.40;57.90;;;;;;5054286;28;20203;-54
2023/07/29 05:42:03;;;;;;;0.10;0.10;;;15.40;57.80;;;;;;5053672;28;20606;-57
2023/07/29 05:44:34;;;;;;;0.10;0.10;;;15.40;57.80;;;;;;5053631;28;20745;-57
2023/07/29 05:47:05;;;;;;;0.10;0.10;;;15.40;57.60;;;;;;5053696;28;20196;-49
2023/07/29 05:49:35;;;;;;;0.10;0.10;;;15.40;57.70;;;;;;5053725;28;20196;-50
2023/07/29 05:52:06;;;;;;;0.10;0.10;;;15.40;57.60;;;;;;5054022;28;20198;-52
2023/07/29 05:54:37;;;;;;;0.10;0.10;;;15.40;57.60;;;;;;5053660;28;20223;-53
2023/07/29 05:57:10;;;;;;;0.10;0.10;;;15.40;57.60;;;;;;5053691;28;20203;-56
2023/07/29 05:59:40;;;;;;;0.10;0.10;;;15.30;57.50;;;;;;5053694;28;20192;-58
2023/07/29 06:02:11;;;;;;;0.00;0.00;;;15.30;57.60;;;;;;5053085;28;20199;-53
2023/07/29 06:04:41;;;;;;;0.10;0.10;;;15.30;57.60;;;;;;5053604;28;20269;-50
2023/07/29 06:07:12;;;;;;;0.10;0.10;;;15.30;57.60;;;;;;5053544;28;20210;-58
2023/07/29 06:09:43;;;;;;;0.10;0.10;;;15.30;57.60;;;;;;5053562;28;20576;-51
2023/07/29 06:12:15;;;;;;;0.10;0.10;;;15.20;57.60;;;;;;5053482;28;20191;-54
2023/07/29 06:14:46;;;;;;;0.10;0.10;;;15.30;57.60;;;;;;5053355;28;20222;-61
2023/07/29 06:17:16;;;;;;;0.10;0.10;;;15.20;57.60;;;;;;5053158;28;20533;-51
2023/07/29 06:19:47;;;;;;;0.10;0.10;;;15.30;57.60;;;;;;5053092;28;20203;-59
2023/07/29 06:22:18;;;;;;;0.10;0.10;;;15.20;57.60;;;;;;5053135;28;20195;-49
2023/07/29 06:24:48;;;;;;;0.10;0.10;;;15.20;57.50;;;;;;5053112;28;20706;-62
2023/07/29 06:27:21;;;;;;;0.10;0.10;;;15.20;57.50;;;;;;5052998;28;20195;-56
2023/07/29 06:29:51;;;;;;;0.10;0.10;;;15.20;57.50;;;;;;5052956;28;20199;-56
2023/07/29 06:32:22;;;;;;;0.10;0.10;;;15.20;57.50;;;;;;5053138;28;20199;-57
2023/07/29 06:34:54;;;;;;;0.10;0.10;;;15.10;57.50;;;;;;5052905;28;20709;-52
2023/07/29 06:37:24;;;;;;;0.10;0.10;;;15.20;57.50;;;;;;5053024;28;20204;-48
2023/07/29 06:39:55;;;;;;;0.10;0.10;;;15.10;57.50;;;;;;5052874;28;20195;-51
2023/07/29 06:42:31;;;;;;;0.10;0.10;;;15.10;57.50;;;;;;5052523;28;20203;-56
2023/07/29 06:45:01;;;;;;;0.10;0.10;;;15.10;57.50;;;;;;5052758;28;20276;-57
2023/07/29 06:47:32;;;;;;;0.10;0.10;;;15.10;57.50;;;;;;5052814;28;20200;-55
2023/07/29 06:50:03;;;;;;;0.00;0.00;;;15.10;57.50;;;;;;5052831;28;20203;-54
2023/07/29 06:52:33;;;;;;;0.10;0.10;;;15.10;57.50;;;;;;5052950;28;20199;-52
2023/07/29 06:55:04;;;;;;;0.10;0.10;;;15.10;57.50;;;;;;5054279;28;20208;-53
2023/07/29 06:57:36;;;;;;;0.10;0.10;;;15.10;57.50;;;;;;5052337;28;20195;-56
2023/07/29 07:00:09;;;;;;;0.10;0.10;;;15.10;57.50;;;;;;5050459;28;20196;-51
2023/07/29 07:02:39;;;;;;;0.10;0.10;;;15.10;57.50;;;;;;5052411;28;20277;-53
2023/07/29 07:05:10;;;;;;;0.10;0.10;;;15.10;57.50;;;;;;5052127;28;20215;-61
2023/07/29 07:07:41;;;;;;;0.10;0.10;;;15.00;57.50;;;;;;5051818;28;20269;-54
2023/07/29 07:10:12;;;;;;;0.10;0.10;;;15.00;57.50;;;;;;5051767;28;20195;-61
2023/07/29 07:12:44;;;;;;;0.10;0.10;;;15.00;57.40;;;;;;5052288;28;20211;-56
2023/07/29 07:15:15;;;;;;;0.10;0.10;;;15.00;57.50;;;;;;5051478;28;20231;-57
2023/07/29 07:17:45;;;;;;;0.10;0.10;;;15.00;57.40;;;;;;5051953;28;20190;-51
2023/07/29 07:20:16;;;;;;;0.10;0.10;;;15.00;57.40;;;;;;5051817;28;20195;-59
2023/07/29 07:22:47;;;;;;;0.08;0.08;;;15.00;57.40;;;;;;5051377;28;20366;-61
2023/07/29 07:25:17;;;;;;;0.10;0.10;;;14.90;57.40;;;;;;5052084;28;20277;-54
2023/07/29 07:27:50;;;;;;;0.10;0.10;;;14.90;57.40;;;;;;5051699;28;20200;-49
2023/07/29 07:30:21;;;;;;;0.10;0.10;;;14.90;57.40;;;;;;5051222;28;20734;-57
2023/07/29 07:32:52;;;;;;;0.10;0.10;;;14.90;57.30;;;;;;5052322;28;20214;-54
2023/07/29 07:35:22;;;;;;;0.10;0.10;;;14.90;57.40;;;;;;5051579;28;20277;-56
2023/07/29 07:37:53;;;;;;;0.10;0.10;;;14.90;57.40;;;;;;5051289;28;20590;-52
2023/07/29 07:40:23;;;;;;;0.10;0.10;;;14.90;57.40;;;;;;5051831;28;20192;-55
2023/07/29 07:42:56;;;;;;;0.10;0.10;;;14.90;57.40;;;;;;5052154;28;20223;-55
2023/07/29 07:45:26;;;;;;;0.10;0.10;;;14.90;57.40;;;;;;5051667;28;20223;-55
2023/07/29 07:47:58;;;;;;;0.10;0.10;;;14.80;57.40;;;;;;5051773;28;20269;-59
2023/07/29 07:50:31;;;;;;;0.10;0.10;;;14.80;57.40;;;;;;5051729;28;20201;-53
2023/07/29 07:53:02;;;;;;;0.10;0.10;;;14.80;57.40;;;;;;5051667;28;20210;-59
2023/07/29 07:55:32;;;;;;;0.10;0.10;;;14.80;57.40;;;;;;5051427;28;20219;-54
2023/07/29 07:58:05;;;;;;;0.10;0.10;;;14.80;57.40;;;;;;5050614;28;20195;-56
2023/07/29 08:00:36;;;;;;;0.10;0.10;;;14.80;57.40;;;;;;5051280;28;20222;-54
2023/07/29 08:03:06;;;;;;;0.10;0.10;;;14.80;57.40;;;;;;5051538;28;20219;-57
2023/07/29 08:05:37;;;;;;;0.10;0.10;;;14.70;57.90;;;;;;5050298;28;20235;-56
2023/07/29 08:08:08;;;;;;;0.10;0.10;;;14.70;57.40;;;;;;5051080;28;20650;-54
2023/07/29 08:10:38;;;;;;;0.10;0.10;;;14.70;57.40;;;;;;5051267;28;20253;-52
2023/07/29 08:13:11;;;;;;;0.17;0.17;;;14.70;57.40;;;;;;5050706;28;20203;-56
2023/07/29 08:15:41;;;;;;;0.10;0.10;;;14.70;57.40;;;;;;5051341;28;20273;-56
2023/07/29 08:18:12;;;;;;;0.10;0.10;;;14.70;57.40;;;;;;5051350;28;20200;-48
2023/07/29 08:20:43;;;;;;;0.10;0.10;;;14.70;57.40;;;;;;5051422;28;20195;-52
2023/07/29 08:23:13;;;;;;;0.10;0.10;;;14.70;57.40;;;;;;5051249;28;20227;-51
2023/07/29 08:25:44;;;;;;;0.10;0.10;;;14.70;57.40;;;;;;5051404;28;20235;-49
2023/07/29 08:28:16;;;;;;;0.10;0.10;;;14.70;57.40;;;;;;5050799;28;20188;-57
2023/07/29 08:30:47;;;;;;;0.10;0.10;;;14.60;57.40;;;;;;5051277;28;20203;-57
2023/07/29 08:33:17;;;;;;;0.10;0.10;;;14.60;57.40;;;;;;5051746;28;20220;-47
2023/07/29 08:35:48;;;;;;;0.10;0.10;;;14.60;57.40;;;;;;5051286;28;20269;-61
2023/07/29 08:38:19;;;;;;;0.10;0.10;;;14.60;57.40;;;;;;5051148;28;20199;-55
2023/07/29 08:41:13;;;;;;;0.10;0.10;;;14.60;57.40;;;;;;5051424;28;20585;-53
2023/07/29 08:43:53;;;;;;;0.10;0.10;;;14.50;57.40;;;;;;5050670;28;20762;-60
2023/07/29 08:46:23;;;;;;;0.05;0.05;;;14.50;57.40;;;;;;5051011;28;20211;-50
2023/07/29 08:48:55;;;;;;;0.10;0.10;;;14.50;57.40;;;;;;5051135;28;20655;-60
2023/07/29 08:51:27;;;;;;;0.10;0.10;;;14.50;57.40;;;;;;5053571;28;20198;-52
2023/07/29 08:53:58;;;;;;;0.10;0.10;;;14.50;57.40;;;;;;5051354;28;20287;-56
2023/07/29 08:56:30;;;;;;;0.10;0.10;;;14.50;57.40;;;;;;5051203;28;20220;-48
2023/07/29 08:59:04;;;;;;;0.10;0.10;;;14.50;57.40;;;;;;5050982;28;20198;-57
2023/07/29 09:01:35;;;;;;;0.10;0.10;;;14.50;57.40;;;;;;5051046;28;20230;-63
2023/07/29 09:04:06;;;;;;;0.10;0.10;;;14.50;57.40;;;;;;5048287;28;20231;-56
2023/07/29 09:06:38;;;;;;;0.10;0.10;;;14.50;57.40;;;;;;5047582;28;20191;-52
2023/07/29 09:09:10;;;;;;;0.10;0.10;;;14.50;57.50;;;;;;5050269;28;20275;-47
2023/07/29 09:11:41;;;;;;;0.10;0.10;;;14.50;57.50;;;;;;5050030;28;20622;-57
2023/07/29 09:14:14;;;;;;;0.13;0.13;;;14.50;57.50;;;;;;5049777;28;20211;-53
2023/07/29 09:16:45;;;;;;;0.10;0.10;;;14.40;57.50;;;;;;5049904;28;20196;-45
2023/07/29 09:19:16;;;;;;;0.10;0.10;;;14.40;57.50;;;;;;5054065;28;20196;-55
2023/07/29 09:21:50;;;;;;;0.10;0.10;;;14.40;57.50;;;;;;5052735;28;20199;-46
2023/07/29 09:24:20;;;;;;;0.10;0.10;;;14.40;57.50;;;;;;5053184;28;20219;-54
2023/07/29 09:26:54;;;;;;;0.10;0.10;;;14.40;57.50;;;;;;5052593;28;20192;-55
2023/07/29 09:29:31;;;;;;;0.10;0.10;;;14.40;57.50;;;;;;5053705;28;20648;-49
2023/07/29 09:32:22;;;;;;;0.10;0.10;;;14.40;57.50;;;;;;5053394;28;20195;-54
2023/07/29 09:34:52;;;;;;;0.10;0.10;;;14.40;57.50;;;;;;5052641;28;20885;-56
2023/07/29 09:37:26;;;;;;;0.10;0.10;;;14.40;57.40;;;;;;5053711;28;20196;-51
2023/07/29 09:39:56;;;;;;;0.10;0.10;;;14.40;57.50;;;;;;5053323;28;20222;-53
2023/07/29 09:42:27;;;;;;;0.10;0.10;;;14.40;57.50;;;;;;5052568;28;20659;-54
2023/07/29 09:45:00;;;;;;;0.10;0.10;;;14.40;57.50;;;;;;5052798;28;20261;-58
2023/07/29 09:47:31;;;;;;;0.10;0.10;;;14.40;57.50;;;;;;5053518;28;20242;-46
2023/07/29 09:50:03;;;;;;;0.10;0.10;;;14.30;57.50;;;;;;5053006;28;20211;-54
2023/07/29 09:52:35;;;;;;;0.10;0.10;;;14.30;57.50;;;;;;5052561;28;20246;-50
2023/07/29 09:55:06;;;;;;;0.00;0.00;;;14.30;57.50;;;;;;5053045;28;20219;-52
2023/07/29 09:57:38;;;;;;;0.10;0.10;;;14.30;57.50;;;;;;5051820;28;20191;-48
2023/07/29 10:00:14;;;;;;;0.10;0.10;;;14.30;57.50;;;;;;5065274;28;20282;-53
2023/07/29 10:02:46;;;;;;;0.10;0.10;;;14.30;57.50;;;;;;5065909;28;20184;-56
2023/07/29 10:05:17;;;;;;;0.10;0.10;;;14.30;57.50;;;;;;5052430;28;20625;-60
2023/07/29 10:07:48;;;;;;;0.08;0.08;;;14.30;57.50;;;;;;5052551;28;20199;-55
2023/07/29 10:10:19;;;;;;;0.10;0.10;;;14.30;57.50;;;;;;5053127;28;20582;-56
2023/07/29 10:12:51;;;;;;;0.10;0.10;;;14.30;57.50;;;;;;5052390;28;20199;-56
2023/07/29 10:15:24;;;;;;;0.10;0.10;;;14.20;57.40;;;;;;5053402;28;20220;-57
2023/07/29 10:17:56;;;;;;;0.00;0.00;;;14.20;57.40;;;;;;5053418;28;20257;-57
2023/07/29 10:20:26;;;;;;;0.10;0.10;;;14.20;57.40;;;;;;5053406;28;20198;-56
2023/07/29 10:23:01;;;;;;;0.10;0.10;;;14.20;57.40;;;;;;5053130;28;20203;-51
2023/07/29 10:25:41;;;;;;;0.10;0.10;;;14.20;57.40;;;;;;5053137;28;20639;-53
2023/07/29 10:28:14;;;;;;;0.10;0.10;;;14.20;57.40;;;;;;5051997;28;20674;-54
2023/07/29 10:30:46;;;;;;;0.10;0.10;;;14.20;57.40;;;;;;5052845;28;20561;-56
2023/07/29 10:33:18;;;;;;;0.10;0.10;;;14.20;57.40;;;;;;5053146;28;20207;-59
2023/07/29 10:35:48;;;;;;;0.10;0.10;;;14.20;57.40;;;;;;5052794;28;20288;-57
2023/07/29 10:38:20;;;;;;;0.10;0.10;;;14.20;57.40;;;;;;5052940;28;20203;-58
2023/07/29 10:40:55;;;;;;;0.10;0.10;;;14.20;57.40;;;;;;5052844;28;20199;-57
2023/07/29 10:43:30;;;;;;;0.10;0.10;;;14.20;57.40;;;;;;5051784;28;20282;-55
2023/07/29 10:46:18;;;;;;;0.10;0.10;;;14.10;57.40;;;;;;5052927;28;20694;-51
2023/07/29 10:48:57;;;;;;;0.10;0.10;;;14.10;57.40;;;;;;5053006;28;20237;-50
2023/07/29 10:51:32;;;;;;;0.10;0.10;;;14.10;57.40;;;;;;5052186;28;20197;-56
2023/07/29 10:54:05;;;;;;;0.10;0.10;;;14.10;57.40;;;;;;5054529;28;20199;-60
2023/07/29 10:56:37;;;;;;;0.10;0.10;;;14.10;57.50;;;;;;5051893;28;20249;-51
2023/07/29 10:59:35;;;;;;;0.10;0.10;;;14.10;58.00;;;;;;5052645;28;20196;-59
2023/07/29 11:02:19;;;;;;;0.10;0.10;;;14.10;57.50;;;;;;5052619;28;20282;-58
2023/07/29 11:04:52;;;;;;;0.10;0.10;;;14.10;57.40;;;;;;5052212;28;20315;-52
2023/07/29 11:07:29;;;;;;;0.10;0.10;;;14.10;58.10;;;;;;5052379;28;20210;-55
2023/07/29 11:10:01;;;;;;;0.10;0.10;;;14.10;57.40;;;;;;5052198;28;20199;-51
2023/07/29 11:12:47;;;;;;;0.10;0.10;;;14.10;57.40;;;;;;5051165;28;20558;-59
2023/07/29 11:15:22;;;;;;;0.17;0.17;;;14.00;57.40;;;;;;5051887;28;20310;-53
2023/07/29 11:17:56;;;;;;;0.10;0.10;;;14.00;57.40;;;;;;5052312;28;20608;-61
2023/07/29 11:20:27;;;;;;;0.10;0.10;;;14.00;57.40;;;;;;5052097;28;20441;-51
2023/07/29 11:22:59;;;;;;;0.10;0.10;;;14.00;57.40;;;;;;5051819;28;20200;-58
2023/07/29 11:25:31;;;;;;;0.10;0.10;;;14.00;57.50;;;;;;5051233;28;20223;-50
2023/07/29 11:28:02;;;;;;;0.10;0.10;;;14.00;57.40;;;;;;5051298;28;20651;-52
2023/07/29 11:30:33;;;;;;;0.10;0.10;;;13.90;57.40;;;;;;5051420;28;20195;-56
2023/07/29 11:33:06;;;;;;;0.10;0.10;;;13.90;57.40;;;;;;5051318;28;20285;-54
2023/07/29 11:35:37;;;;;;;0.10;0.10;;;13.90;57.40;;;;;;5052078;28;20230;-55
2023/07/29 11:38:08;;;;;;;0.17;0.17;;;13.90;57.40;;;;;;5051989;28;20195;-56
2023/07/29 11:40:38;;;;;;;0.10;0.10;;;13.90;57.40;;;;;;5051404;28;20377;-61
2023/07/29 11:43:09;;;;;;;0.17;0.17;;;13.90;57.40;;;;;;5051149;28;20195;-49
2023/07/29 11:45:40;;;;;;;0.10;0.10;;;13.90;57.40;;;;;;5051366;28;20226;-53
2023/07/29 11:48:13;;;;;;;0.10;0.10;;;13.90;57.40;;;;;;5051877;28;20535;-55
2023/07/29 11:50:44;;;;;;;0.10;0.10;;;13.90;57.40;;;;;;5051479;28;20200;-56
2023/07/29 11:53:15;;;;;;;0.10;0.10;;;13.90;58.00;;;;;;5050847;28;20249;-61
2023/07/29 11:55:45;;;;;;;0.10;0.10;;;13.90;57.40;;;;;;5051107;28;20215;-54
2023/07/29 11:58:18;;;;;;;0.10;0.10;;;13.80;57.30;;;;;;5050702;28;20195;-51
2023/07/29 12:00:48;;;;;;;0.10;0.10;;;13.90;57.40;;;;;;5051478;28;20199;-60
2023/07/29 12:03:21;;;;;;;0.10;0.10;;;13.90;57.40;;;;;;5051524;28;20697;-58
2023/07/29 12:05:52;;;;;;;0.10;0.10;;;13.80;57.40;;;;;;5051580;28;20223;-58
2023/07/29 12:08:23;;;;;;;0.10;0.10;;;13.80;57.40;;;;;;5051366;28;20199;-60
2023/07/29 12:10:54;;;;;;;0.13;0.13;;;13.80;57.40;;;;;;5050926;28;20650;-57
2023/07/29 12:13:28;;;;;;;0.10;0.10;;;13.80;57.30;;;;;;5051375;28;20199;-57
2023/07/29 12:16:06;;;;;;;0.10;0.10;;;13.70;57.30;;;;;;5051203;28;20226;-54
2023/07/29 12:18:40;;;;;;;0.10;0.10;;;13.80;57.40;;;;;;5051201;28;20199;-56
2023/07/29 12:21:10;;;;;;;0.10;0.10;;;13.70;57.40;;;;;;5051362;28;20192;-57
2023/07/29 12:23:41;;;;;;;0.10;0.10;;;13.70;57.40;;;;;;5051107;28;20204;-57
2023/07/29 12:26:11;;;;;;;0.10;0.10;;;13.70;57.40;;;;;;5051042;28;20230;-53
2023/07/29 12:28:47;;;;;;;0.10;0.10;;;13.70;57.40;;;;;;5051342;28;20206;-52
2023/07/29 12:31:17;;;;;;;0.10;0.10;;;13.80;57.40;;;;;;5051605;28;20206;-56
2023/07/29 12:33:50;;;;;;;0.10;0.10;;;13.70;57.40;;;;;;5051232;28;20212;-51
2023/07/29 12:36:21;;;;;;;0.10;0.10;;;13.70;57.40;;;;;;5051398;28;20694;-53
2023/07/29 12:38:51;;;;;;;0.10;0.10;;;13.70;57.40;;;;;;5050850;28;20202;-60
2023/07/29 12:41:22;;;;;;;0.10;0.10;;;13.70;57.30;;;;;;5050936;28;20546;-54
2023/07/29 12:43:53;;;;;;;0.10;0.10;;;13.70;57.30;;;;;;5050848;28;20199;-50
2023/07/29 12:46:23;;;;;;;0.10;0.10;;;13.70;57.40;;;;;;5051031;28;20226;-53
2023/07/29 12:48:56;;;;;;;0.10;0.10;;;13.70;57.40;;;;;;5051267;28;20198;-51
2023/07/29 12:51:26;;;;;;;0.10;0.10;;;13.60;57.30;;;;;;5051237;28;20202;-58
2023/07/29 12:53:57;;;;;;;0.05;0.05;;;13.60;57.30;;;;;;5055961;28;20678;-54
2023/07/29 12:56:28;;;;;;;0.10;0.10;;;13.60;57.30;;;;;;5055566;28;20222;-57
2023/07/29 12:58:58;;;;;;;0.10;0.10;;;13.60;57.30;;;;;;5054273;28;20249;-52
2023/07/29 13:01:29;;;;;;;0.10;0.10;;;13.60;57.40;;;;;;5054369;28;20210;-51
2023/07/29 13:04:02;;;;;;;0.10;0.10;;;13.60;57.40;;;;;;5054390;28;20721;-56
2023/07/29 13:06:32;;;;;;;0.10;0.10;;;13.60;57.40;;;;;;5053918;28;20219;-52
2023/07/29 13:09:03;;;;;;;0.10;0.10;;;13.60;57.40;;;;;;5054162;28;20539;-55
2023/07/29 13:11:34;;;;;;;0.10;0.10;;;13.60;57.40;;;;;;5054403;28;20195;-57